Terminal Aerodrome Forecast
Issued by NWS Shreveport, LA

Home | Current Version | Previous Version | Text Only | Print | Product List | Glossary On
Versions: 1 2 3 4 5 6 7 8 9 10 11 12 13
000
FTUS44 KSHV 200500 RRA
TAFGGG
TAF
KGGG 200541Z 2006/2106 04004KT 5SM BR OVC007
     FM201600 05004KT 6SM BR OVC007
     FM201800 06005KT P6SM SCT009 OVC015
     FM202100 06005KT P6SM BKN020
     FM210000 08003KT P6SM BKN020=

USA.gov is the U.S. government's official web portal to all federal, state and local government web resources and services.